Umpire, AR (71971)

7:51 PM CDT on May 06, 2015 (GMT -0500)
Bethany | | Change Station
CLOSE
Current Station
Personal Weather Station
Location: Dierks, AR
Elevation: 502 ft
Nearby Weather Stations

Elev 502 ft 34.08 °N, 94.02 °W | Updated 4 seconds ago

Overcast
Overcast
73.0 °F
Feels Like 75 °F
N
0.9
Wind Variable Wind from ENE
Gusts 1.6 mph

Today
High -- | Low -- °F
--% Chance of Precip.
Yesterday
High -- | Low -- °F
Precip. -- in
6:22 AM 8:04 PM
Waning Gibbous, 91% visible
Pressure 29.96 in
Visibility 10.0 miles
Clouds Mostly Cloudy 6500 ft
Overcast 9000 ft
Heat Index 75 °F
Dew Point 63 °F
Humidity 69%
Rainfall 0.00 in
Snow Depth Not available.
UV 0 out of 12
Pollen 1.90 out of 12
Air Quality Not available.
Flu Activity No Activity
METAR KMEZ 070035Z AUTO 00000KT 10SM BKN065 OVC090 25/16 A2996 RMK AO2

More Conditions Fewer Conditions

Pressure 29.96 in
Visibility 10.0 miles
Clouds Mostly Cloudy 6500 ft
Overcast 9000 ft
Heat Index 75 °F
Dew Point 63 °F
Humidity 69%
Rainfall 0.00 in
Snow Depth Not available.
UV 0 out of 12
Pollen 1.90 out of 12
Air Quality Not available.
Flu Activity No Activity
METAR KMEZ 070035Z AUTO 00000KT 10SM BKN065 OVC090 25/16 A2996 RMK AO2

More Conditions Fewer Conditions

10-Day Weather Forecast

Almanac

Astronomy

May. 06, 2015 Rise Set
Actual Time
Civil Twilight
Nautical Twilight
Astronomical Twilight
Moon
Length of Visible Light
Length of Day
Tomorrow will be .
, % of the Moon is Illuminated

Today's Extremes

State Highs State Lows

Community

WunderPhotos

Upload Photos

1,819,061 photos uploaded!

WunderBlogs® & News

Nearby

Air Quality

  Air Quality AQ Index Pollutant
Not available.

Snow Depth

Station Depth Elevation

Earthquake Activity

City Distance Mag. Time & Date
Minimum magnitude displayed is 2.5.

Coastal Water Temperatures

Place Temperature

Stations

Nearby Weather Stations

Station Location Temp. Windchill Dew Point Humidity Wind Precip. Elev Updated Type